sensor_id;sensor_type;location;lat;lon;timestamp;pressure;altitude;pressure_sealevel;temperature;humidity
60871;BME280;46714;50.118;14.462;2023-08-07T00:01:24;97791.13;;;12.33;100.00
60871;BME280;46714;50.118;14.462;2023-08-07T00:03:50;97791.38;;;12.31;100.00
60871;BME280;46714;50.118;14.462;2023-08-07T00:06:15;97792.19;;;12.32;100.00
60871;BME280;46714;50.118;14.462;2023-08-07T00:08:41;97790.03;;;12.34;100.00
60871;BME280;46714;50.118;14.462;2023-08-07T00:11:07;97788.97;;;12.35;100.00
60871;BME280;46714;50.118;14.462;2023-08-07T00:13:33;97788.66;;;12.36;100.00
60871;BME280;46714;50.118;14.462;2023-08-07T00:15:59;97782.16;;;12.38;100.00
60871;BME280;46714;50.118;14.462;2023-08-07T00:18:24;97791.16;;;12.38;100.00
60871;BME280;46714;50.118;14.462;2023-08-07T00:20:50;97781.34;;;12.37;100.00
60871;BME280;46714;50.118;14.462;2023-08-07T00:23:15;97791.97;;;12.39;100.00
60871;BME280;46714;50.118;14.462;2023-08-07T00:25:41;97791.16;;;12.38;100.00
60871;BME280;46714;50.118;14.462;2023-08-07T00:28:06;97787.31;;;12.39;100.00
60871;BME280;46714;50.118;14.462;2023-08-07T00:30:31;97782.44;;;12.41;100.00
60871;BME280;46714;50.118;14.462;2023-08-07T00:32:57;97783.00;;;12.43;100.00
60871;BME280;46714;50.118;14.462;2023-08-07T00:35:22;97782.50;;;12.46;100.00
60871;BME280;46714;50.118;14.462;2023-08-07T00:37:47;97787.41;;;12.49;100.00
60871;BME280;46714;50.118;14.462;2023-08-07T00:40:13;97777.31;;;12.50;100.00
60871;BME280;46714;50.118;14.462;2023-08-07T00:42:38;97778.13;;;12.50;100.00
60871;BME280;46714;50.118;14.462;2023-08-07T00:45:04;97786.88;;;12.52;100.00
60871;BME280;46714;50.118;14.462;2023-08-07T00:47:30;97787.75;;;12.53;100.00
60871;BME280;46714;50.118;14.462;2023-08-07T00:49:56;97792.91;;;12.54;100.00
60871;BME280;46714;50.118;14.462;2023-08-07T00:52:23;97790.19;;;12.54;100.00
60871;BME280;46714;50.118;14.462;2023-08-07T00:54:49;97792.66;;;12.56;100.00
60871;BME280;46714;50.118;14.462;2023-08-07T00:57:14;97788.03;;;12.56;100.00
60871;BME280;46714;50.118;14.462;2023-08-07T00:59:41;97792.66;;;12.56;100.00
60871;BME280;46714;50.118;14.462;2023-08-07T01:02:08;97789.13;;;12.55;100.00
60871;BME280;46714;50.118;14.462;2023-08-07T01:04:34;97795.13;;;12.57;100.00
60871;BME280;46714;50.118;14.462;2023-08-07T01:07:00;97792.94;;;12.60;100.00
60871;BME280;46714;50.118;14.462;2023-08-07T01:09:25;97794.03;;;12.58;100.00
60871;BME280;46714;50.118;14.462;2023-08-07T01:14:49;97793.50;;;12.62;100.00
60871;BME280;46714;50.118;14.462;2023-08-07T01:17:19;97789.72;;;12.63;100.00
60871;BME280;46714;50.118;14.462;2023-08-07T01:19:47;97789.72;;;12.63;100.00
60871;BME280;46714;50.118;14.462;2023-08-07T01:22:16;97799.53;;;12.64;100.00
60871;BME280;46714;50.118;14.462;2023-08-07T01:24:44;97799.53;;;12.64;100.00
60871;BME280;46714;50.118;14.462;2023-08-07T01:35:20;97813.22;;;12.69;100.00
60871;BME280;46714;50.118;14.462;2023-08-07T01:37:50;97817.03;;;12.68;100.00
60871;BME280;46714;50.118;14.462;2023-08-07T01:40:18;97820.34;;;12.70;100.00
60871;BME280;46714;50.118;14.462;2023-08-07T01:42:45;97818.66;;;12.69;100.00
60871;BME280;46714;50.118;14.462;2023-08-07T01:45:12;97820.34;;;12.70;100.00
60871;BME280;46714;50.118;14.462;2023-08-07T01:47:38;97819.53;;;12.69;100.00
60871;BME280;46714;50.118;14.462;2023-08-07T01:50:03;97820.34;;;12.70;100.00
60871;BME280;46714;50.118;14.462;2023-08-07T01:52:29;97825.78;;;12.70;100.00
60871;BME280;46714;50.118;14.462;2023-08-07T01:54:55;97820.59;;;12.68;100.00
60871;BME280;46714;50.118;14.462;2023-08-07T01:57:20;97821.69;;;12.67;100.00
60871;BME280;46714;50.118;14.462;2023-08-07T01:59:45;97828.50;;;12.65;100.00
60871;BME280;46714;50.118;14.462;2023-08-07T02:02:11;97821.34;;;12.58;100.00
60871;BME280;46714;50.118;14.462;2023-08-07T02:04:36;97828.94;;;12.51;100.00
60871;BME280;46714;50.118;14.462;2023-08-07T02:07:02;97819.59;;;12.47;100.00
60871;BME280;46714;50.118;14.462;2023-08-07T02:09:27;97827.75;;;12.42;100.00
60871;BME280;46714;50.118;14.462;2023-08-07T02:11:53;97829.09;;;12.40;100.00
60871;BME280;46714;50.118;14.462;2023-08-07T02:14:18;97826.06;;;12.36;100.00
60871;BME280;46714;50.118;14.462;2023-08-07T02:16:43;97822.75;;;12.34;100.00
60871;BME280;46714;50.118;14.462;2023-08-07T02:19:09;97823.03;;;12.32;100.00
60871;BME280;46714;50.118;14.462;2023-08-07T02:21:34;97830.13;;;12.33;100.00
60871;BME280;46714;50.118;14.462;2023-08-07T02:23:59;97832.03;;;12.33;100.00
60871;BME280;46714;50.118;14.462;2023-08-07T02:26:25;97837.50;;;12.33;100.00
60871;BME280;46714;50.118;14.462;2023-08-07T02:28:50;97827.09;;;12.30;100.00
60871;BME280;46714;50.118;14.462;2023-08-07T02:31:15;97832.53;;;12.30;100.00
60871;BME280;46714;50.118;14.462;2023-08-07T02:33:41;97838.84;;;12.30;100.00
60871;BME280;46714;50.118;14.462;2023-08-07T02:36:06;97834.47;;;12.29;100.00
60871;BME280;46714;50.118;14.462;2023-08-07T02:38:32;97837.47;;;12.28;100.00
60871;BME280;46714;50.118;14.462;2023-08-07T02:40:58;97833.06;;;12.27;100.00
60871;BME280;46714;50.118;14.462;2023-08-07T02:43:23;97832.78;;;12.23;100.00
60871;BME280;46714;50.118;14.462;2023-08-07T02:45:48;97836.00;;;12.20;100.00
60871;BME280;46714;50.118;14.462;2023-08-07T02:48:14;97838.72;;;12.20;100.00
60871;BME280;46714;50.118;14.462;2023-08-07T02:50:39;97841.75;;;12.19;100.00
60871;BME280;46714;50.118;14.462;2023-08-07T02:53:05;97837.34;;;12.18;100.00
60871;BME280;46714;50.118;14.462;2023-08-07T02:55:30;97836.53;;;12.17;100.00
60871;BME280;46714;50.118;14.462;2023-08-07T02:57:55;97846.06;;;12.14;100.00
60871;BME280;46714;50.118;14.462;2023-08-07T03:00:21;97843.00;;;12.11;100.00
60871;BME280;46714;50.118;14.462;2023-08-07T03:02:46;97842.44;;;12.09;100.00
60871;BME280;46714;50.118;14.462;2023-08-07T03:05:12;97832.88;;;12.06;100.00
60871;BME280;46714;50.118;14.462;2023-08-07T03:07:37;97847.59;;;12.05;100.00
60871;BME280;46714;50.118;14.462;2023-08-07T03:10:03;97841.59;;;12.03;100.00
60871;BME280;46714;50.118;14.462;2023-08-07T03:12:29;97845.94;;;12.04;100.00
60871;BME280;46714;50.118;14.462;2023-08-07T03:14:54;97846.75;;;12.05;100.00
60871;BME280;46714;50.118;14.462;2023-08-07T03:17:20;97845.94;;;12.04;100.00
60871;BME280;46714;50.118;14.462;2023-08-07T03:19:45;97842.63;;;12.02;100.00
60871;BME280;46714;50.118;14.462;2023-08-07T03:22:11;97841.81;;;12.02;100.00
60871;BME280;46714;50.118;14.462;2023-08-07T03:24:37;97846.47;;;12.01;100.00
60871;BME280;46714;50.118;14.462;2023-08-07T03:27:02;97845.91;;;11.99;100.00
60871;BME280;46714;50.118;14.462;2023-08-07T03:29:28;97853.25;;;11.99;100.00
60871;BME280;46714;50.118;14.462;2023-08-07T03:31:53;97848.06;;;11.97;100.00
60871;BME280;46714;50.118;14.462;2023-08-07T03:34:19;97849.72;;;11.98;100.00
60871;BME280;46714;50.118;14.462;2023-08-07T03:36:44;97853.25;;;11.99;100.00
60871;BME280;46714;50.118;14.462;2023-08-07T03:39:10;97856.81;;;11.99;100.00
60871;BME280;46714;50.118;14.462;2023-08-07T03:41:37;97853.81;;;12.01;100.00
60871;BME280;46714;50.118;14.462;2023-08-07T03:44:02;97858.44;;;12.00;100.00
60871;BME280;46714;50.118;14.462;2023-08-07T03:46:28;97849.19;;;12.01;100.00
60871;BME280;46714;50.118;14.462;2023-08-07T03:48:53;97861.72;;;12.02;100.00
60871;BME280;46714;50.118;14.462;2023-08-07T03:51:19;97861.50;;;12.04;100.00
60871;BME280;46714;50.118;14.462;2023-08-07T03:53:44;97859.84;;;12.03;100.00
60871;BME280;46714;50.118;14.462;2023-08-07T03:56:10;97858.19;;;12.02;100.00
60871;BME280;46714;50.118;14.462;2023-08-07T03:58:35;97862.59;;;12.03;100.00
60871;BME280;46714;50.118;14.462;2023-08-07T04:01:00;97859.56;;;12.04;100.00
60871;BME280;46714;50.118;14.462;2023-08-07T04:03:26;97874.03;;;12.05;100.00
60871;BME280;46714;50.118;14.462;2023-08-07T04:05:52;97871.88;;;12.07;100.00
60871;BME280;46714;50.118;14.462;2023-08-07T04:08:18;97863.69;;;12.07;100.00
60871;BME280;46714;50.118;14.462;2023-08-07T04:10:44;97870.00;;;12.07;100.00
60871;BME280;46714;50.118;14.462;2023-08-07T04:13:09;97871.63;;;12.08;100.00
60871;BME280;46714;50.118;14.462;2023-08-07T04:15:34;97879.81;;;12.08;100.00
60871;BME280;46714;50.118;14.462;2023-08-07T04:18:00;97888.81;;;12.09;100.00
60871;BME280;46714;50.118;14.462;2023-08-07T04:20:26;97884.16;;;12.09;100.00
60871;BME280;46714;50.118;14.462;2023-08-07T04:22:51;97882.28;;;12.10;100.00
60871;BME280;46714;50.118;14.462;2023-08-07T04:25:17;97883.94;;;12.11;100.00
60871;BME280;46714;50.118;14.462;2023-08-07T04:27:42;97888.56;;;12.10;100.00
60871;BME280;46714;50.118;14.462;2023-08-07T04:30:08;97877.66;;;12.10;100.00
60871;BME280;46714;50.118;14.462;2023-08-07T04:32:33;97887.75;;;12.10;100.00
60871;BME280;46714;50.118;14.462;2023-08-07T04:34:59;97888.56;;;12.10;100.00
60871;BME280;46714;50.118;14.462;2023-08-07T04:37:24;97882.88;;;12.12;100.00
60871;BME280;46714;50.118;14.462;2023-08-07T04:39:50;97883.69;;;12.12;100.00
60871;BME280;46714;50.118;14.462;2023-08-07T04:42:15;97882.88;;;12.12;100.00
60871;BME280;46714;50.118;14.462;2023-08-07T04:44:40;97883.69;;;12.12;100.00
60871;BME280;46714;50.118;14.462;2023-08-07T04:47:06;97895.16;;;12.14;100.00
60871;BME280;46714;50.118;14.462;2023-08-07T04:49:31;97896.78;;;12.15;100.00
60871;BME280;46714;50.118;14.462;2023-08-07T04:51:56;97900.09;;;12.18;100.00
60871;BME280;46714;50.118;14.462;2023-08-07T04:54:22;97901.75;;;12.19;100.00
60871;BME280;46714;50.118;14.462;2023-08-07T04:56:47;97895.44;;;12.18;100.00
60871;BME280;46714;50.118;14.462;2023-08-07T04:59:12;97896.84;;;12.21;100.00
60871;BME280;46714;50.118;14.462;2023-08-07T05:01:38;97895.78;;;12.22;100.00
60871;BME280;46714;50.118;14.462;2023-08-07T05:04:03;97897.16;;;12.24;100.00
60871;BME280;46714;50.118;14.462;2023-08-07T05:06:30;97910.00;;;12.24;100.00
60871;BME280;46714;50.118;14.462;2023-08-07T05:08:56;97906.97;;;12.25;100.00
60871;BME280;46714;50.118;14.462;2023-08-07T05:11:21;97910.28;;;12.27;100.00
60871;BME280;46714;50.118;14.462;2023-08-07T05:13:46;97909.22;;;12.28;100.00
60871;BME280;46714;50.118;14.462;2023-08-07T05:16:12;97919.84;;;12.30;100.00
60871;BME280;46714;50.118;14.462;2023-08-07T05:18:37;97917.69;;;12.32;100.00
60871;BME280;46714;50.118;14.462;2023-08-07T05:21:03;97926.47;;;12.34;100.00
60871;BME280;46714;50.118;14.462;2023-08-07T05:23:28;97921.81;;;12.34;100.00
60871;BME280;46714;50.118;14.462;2023-08-07T05:25:53;97928.94;;;12.35;100.00
60871;BME280;46714;50.118;14.462;2023-08-07T05:28:19;97928.69;;;12.37;100.00
60871;BME280;46714;50.118;14.462;2023-08-07T05:30:44;97933.88;;;12.39;100.00
60871;BME280;46714;50.118;14.462;2023-08-07T05:33:09;97936.34;;;12.40;100.00
60871;BME280;46714;50.118;14.462;2023-08-07T05:35:35;97934.69;;;12.39;100.00
60871;BME280;46714;50.118;14.462;2023-08-07T05:38:02;97942.38;;;12.42;100.00
60871;BME280;46714;50.118;14.462;2023-08-07T05:40:28;97944.59;;;12.45;100.00
60871;BME280;46714;50.118;14.462;2023-08-07T05:42:54;97946.78;;;12.48;100.00
60871;BME280;46714;50.118;14.462;2023-08-07T05:45:20;97949.59;;;12.53;100.00
60871;BME280;46714;50.118;14.462;2023-08-07T05:47:46;97948.25;;;12.56;100.00
60871;BME280;46714;50.118;14.462;2023-08-07T05:50:11;97958.41;;;12.61;100.00
60871;BME280;46714;50.118;14.462;2023-08-07T05:52:36;97956.53;;;12.66;100.00
60871;BME280;46714;50.118;14.462;2023-08-07T05:55:02;97956.59;;;12.71;100.00
60871;BME280;46714;50.118;14.462;2023-08-07T05:57:29;97961.78;;;12.73;100.00
60871;BME280;46714;50.118;14.462;2023-08-07T05:59:54;97958.00;;;12.74;100.00
60871;BME280;46714;50.118;14.462;2023-08-07T06:02:19;97965.41;;;12.78;100.00
60871;BME280;46714;50.118;14.462;2023-08-07T06:04:45;97971.97;;;12.83;100.00
60871;BME280;46714;50.118;14.462;2023-08-07T06:07:10;97968.75;;;12.86;100.00
60871;BME280;46714;50.118;14.462;2023-08-07T06:09:36;97961.94;;;12.88;100.00
60871;BME280;46714;50.118;14.462;2023-08-07T06:12:01;97976.72;;;12.92;100.00
60871;BME280;46714;50.118;14.462;2023-08-07T06:14:27;97984.66;;;12.94;100.00
60871;BME280;46714;50.118;14.462;2023-08-07T06:16:53;97985.50;;;12.94;100.00
60871;BME280;46714;50.118;14.462;2023-08-07T06:19:18;97983.00;;;12.93;100.00
60871;BME280;46714;50.118;14.462;2023-08-07T06:21:45;97979.47;;;12.92;100.00
60871;BME280;46714;50.118;14.462;2023-08-07T06:24:11;97988.47;;;12.93;100.00
60871;BME280;46714;50.118;14.462;2023-08-07T06:26:37;97986.06;;;12.96;100.00
60871;BME280;46714;50.118;14.462;2023-08-07T06:29:02;97986.34;;;13.00;100.00
60871;BME280;46714;50.118;14.462;2023-08-07T06:31:28;97988.31;;;13.05;100.00
60871;BME280;46714;50.118;14.462;2023-08-07T06:33:53;98000.94;;;13.11;100.00
60871;BME280;46714;50.118;14.462;2023-08-07T06:36:18;98003.66;;;13.11;100.00
60871;BME280;46714;50.118;14.462;2023-08-07T06:38:44;98011.09;;;13.15;100.00
60871;BME280;46714;50.118;14.462;2023-08-07T06:41:09;98010.03;;;13.21;100.00
60871;BME280;46714;50.118;14.462;2023-08-07T06:43:34;98007.34;;;13.27;100.00
60871;BME280;46714;50.118;14.462;2023-08-07T06:46:00;98012.56;;;13.28;100.00
60871;BME280;46714;50.118;14.462;2023-08-07T06:48:26;98006.06;;;13.34;100.00
60871;BME280;46714;50.118;14.462;2023-08-07T06:50:51;98016.22;;;13.39;100.00
60871;BME280;46714;50.118;14.462;2023-08-07T06:53:17;98009.16;;;13.43;100.00
60871;BME280;46714;50.118;14.462;2023-08-07T06:55:42;98013.25;;;13.46;100.00
60871;BME280;46714;50.118;14.462;2023-08-07T06:58:08;98013.84;;;13.48;100.00
60871;BME280;46714;50.118;14.462;2023-08-07T07:00:34;98016.31;;;13.49;100.00
60871;BME280;46714;50.118;14.462;2023-08-07T07:03:03;98024.75;;;13.48;100.00
60871;BME280;46714;50.118;14.462;2023-08-07T07:05:29;98029.66;;;13.46;100.00
60871;BME280;46714;50.118;14.462;2023-08-07T07:07:55;98028.03;;;13.45;100.00
60871;BME280;46714;50.118;14.462;2023-08-07T07:10:22;98046.84;;;13.41;100.00
60871;BME280;46714;50.118;14.462;2023-08-07T07:12:47;98056.03;;;13.30;100.00
60871;BME280;46714;50.118;14.462;2023-08-07T07:15:13;98054.75;;;13.10;100.00
60871;BME280;46714;50.118;14.462;2023-08-07T07:17:38;98059.59;;;13.03;100.00
60871;BME280;46714;50.118;14.462;2023-08-07T07:20:04;98056.81;;;12.98;100.00
60871;BME280;46714;50.118;14.462;2023-08-07T07:22:30;98059.81;;;12.96;100.00
60871;BME280;46714;50.118;14.462;2023-08-07T07:24:55;98058.16;;;12.95;100.00
60871;BME280;46714;50.118;14.462;2023-08-07T07:27:20;98068.06;;;13.02;100.00
60871;BME280;46714;50.118;14.462;2023-08-07T07:29:47;98065.63;;;13.05;100.00
60871;BME280;46714;50.118;14.462;2023-08-07T07:32:15;98071.44;;;13.14;100.00
60871;BME280;46714;50.118;14.462;2023-08-07T07:34:41;98073.41;;;13.18;100.00
60871;BME280;46714;50.118;14.462;2023-08-07T07:37:06;98074.78;;;13.21;100.00
60871;BME280;46714;50.118;14.462;2023-08-07T07:39:32;98074.78;;;13.21;100.00
60871;BME280;46714;50.118;14.462;2023-08-07T07:41:59;98078.09;;;13.23;100.00
60871;BME280;46714;50.118;14.462;2023-08-07T07:44:24;98075.69;;;13.27;100.00
60871;BME280;46714;50.118;14.462;2023-08-07T07:46:50;98081.75;;;13.29;100.00
60871;BME280;46714;50.118;14.462;2023-08-07T07:49:15;98083.75;;;13.38;100.00
60871;BME280;46714;50.118;14.462;2023-08-07T07:51:41;98090.13;;;13.49;100.00
60871;BME280;46714;50.118;14.462;2023-08-07T07:54:09;98090.50;;;13.63;100.00
60871;BME280;46714;50.118;14.462;2023-08-07T07:56:34;98096.63;;;13.75;100.00
60871;BME280;46714;50.118;14.462;2023-08-07T07:59:00;98101.13;;;13.92;100.00
60871;BME280;46714;50.118;14.462;2023-08-07T08:01:25;98108.88;;;14.05;100.00
60871;BME280;46714;50.118;14.462;2023-08-07T08:03:50;98109.47;;;14.17;100.00
60871;BME280;46714;50.118;14.462;2023-08-07T08:06:16;98113.94;;;14.29;100.00
60871;BME280;46714;50.118;14.462;2023-08-07T08:08:42;98111.84;;;14.46;100.00
60871;BME280;46714;50.118;14.462;2023-08-07T08:11:07;98110.75;;;14.52;100.00
60871;BME280;46714;50.118;14.462;2023-08-07T08:13:33;98114.97;;;14.60;100.00
60871;BME280;46714;50.118;14.462;2023-08-07T08:15:58;98117.97;;;14.63;100.00
60871;BME280;46714;50.118;14.462;2023-08-07T08:18:24;98116.09;;;14.64;100.00
60871;BME280;46714;50.118;14.462;2023-08-07T08:20:49;98117.72;;;14.65;100.00
60871;BME280;46714;50.118;14.462;2023-08-07T08:23:14;98121.56;;;14.64;100.00
60871;BME280;46714;50.118;14.462;2023-08-07T08:25:40;98129.44;;;14.55;100.00
60871;BME280;46714;50.118;14.462;2023-08-07T08:28:05;98129.41;;;14.50;100.00
60871;BME280;46714;50.118;14.462;2023-08-07T08:30:31;98132.75;;;14.57;100.00
60871;BME280;46714;50.118;14.462;2023-08-07T08:32:56;98141.25;;;14.61;100.00
60871;BME280;46714;50.118;14.462;2023-08-07T08:35:21;98134.97;;;14.65;100.00
60871;BME280;46714;50.118;14.462;2023-08-07T08:37:47;98142.97;;;14.77;100.00
60871;BME280;46714;50.118;14.462;2023-08-07T08:40:13;98151.78;;;14.90;100.00
60871;BME280;46714;50.118;14.462;2023-08-07T08:42:42;98153.72;;;14.94;100.00
60871;BME280;46714;50.118;14.462;2023-08-07T08:45:09;98159.78;;;15.01;100.00
60871;BME280;46714;50.118;14.462;2023-08-07T08:47:38;98155.13;;;15.07;100.00
60871;BME280;46714;50.118;14.462;2023-08-07T08:50:05;98152.13;;;15.14;100.00
60871;BME280;46714;50.118;14.462;2023-08-07T08:52:33;98151.63;;;15.22;100.00
60871;BME280;46714;50.118;14.462;2023-08-07T08:54:58;98157.94;;;15.27;100.00
60871;BME280;46714;50.118;14.462;2023-08-07T08:57:25;98164.56;;;15.42;100.00
60871;BME280;46714;50.118;14.462;2023-08-07T08:59:51;98165.66;;;15.46;100.00
60871;BME280;46714;50.118;14.462;2023-08-07T09:02:17;98172.53;;;15.54;100.00
60871;BME280;46714;50.118;14.462;2023-08-07T09:04:43;98171.44;;;15.60;100.00
60871;BME280;46714;50.118;14.462;2023-08-07T09:07:09;98179.66;;;15.60;100.00
60871;BME280;46714;50.118;14.462;2023-08-07T09:09:35;98180.47;;;15.55;100.00
60871;BME280;46714;50.118;14.462;2023-08-07T09:12:01;98187.06;;;15.54;100.00
60871;BME280;46714;50.118;14.462;2023-08-07T09:14:29;98200.50;;;15.50;100.00
60871;BME280;46714;50.118;14.462;2023-08-07T09:16:59;98200.25;;;15.52;100.00
60871;BME280;46714;50.118;14.462;2023-08-07T09:19:26;98209.59;;;15.56;100.00
60871;BME280;46714;50.118;14.462;2023-08-07T09:21:51;98209.03;;;15.59;100.00
60871;BME280;46714;50.118;14.462;2023-08-07T09:24:17;98199.97;;;15.64;100.00
60871;BME280;46714;50.118;14.462;2023-08-07T09:26:44;98207.94;;;15.65;99.11
60871;BME280;46714;50.118;14.462;2023-08-07T09:29:10;98213.22;;;15.72;100.00
60871;BME280;46714;50.118;14.462;2023-08-07T09:31:38;98220.63;;;15.72;98.93
60871;BME280;46714;50.118;14.462;2023-08-07T09:34:07;98212.94;;;15.79;100.00
60871;BME280;46714;50.118;14.462;2023-08-07T09:36:33;98214.88;;;15.88;100.00
60871;BME280;46714;50.118;14.462;2023-08-07T09:39:03;98220.09;;;15.95;100.00
60871;BME280;46714;50.118;14.462;2023-08-07T09:41:29;98214.88;;;15.94;100.00
60871;BME280;46714;50.118;14.462;2023-08-07T09:43:56;98223.13;;;16.04;100.00
60871;BME280;46714;50.118;14.462;2023-08-07T09:46:22;98226.69;;;16.04;100.00
60871;BME280;46714;50.118;14.462;2023-08-07T09:48:48;98202.81;;;16.00;100.00
60871;BME280;46714;50.118;14.462;2023-08-07T09:51:13;98222.00;;;16.10;100.00
60871;BME280;46714;50.118;14.462;2023-08-07T09:53:39;98222.31;;;16.13;100.00
60871;BME280;46714;50.118;14.462;2023-08-07T09:56:04;98217.06;;;16.12;98.76
60871;BME280;46714;50.118;14.462;2023-08-07T09:58:31;98231.38;;;16.04;98.22
60871;BME280;46714;50.118;14.462;2023-08-07T10:00:58;98232.44;;;16.08;100.00
60871;BME280;46714;50.118;14.462;2023-08-07T10:03:25;98235.50;;;16.01;98.84
60871;BME280;46714;50.118;14.462;2023-08-07T10:05:51;98245.66;;;16.06;100.00
60871;BME280;46714;50.118;14.462;2023-08-07T10:08:17;98249.47;;;16.10;100.00
60871;BME280;46714;50.118;14.462;2023-08-07T10:10:43;98245.91;;;16.09;100.00
60871;BME280;46714;50.118;14.462;2023-08-07T10:13:08;98244.25;;;16.03;97.71
60871;BME280;46714;50.118;14.462;2023-08-07T10:15:35;98255.78;;;15.95;97.89
60871;BME280;46714;50.118;14.462;2023-08-07T10:18:02;98260.41;;;15.84;99.67
60871;BME280;46714;50.118;14.462;2023-08-07T10:20:29;98255.50;;;15.86;98.83
60871;BME280;46714;50.118;14.462;2023-08-07T10:23:00;98269.78;;;15.88;99.69
60871;BME280;46714;50.118;14.462;2023-08-07T10:25:29;98269.75;;;15.83;100.00
60871;BME280;46714;50.118;14.462;2023-08-07T10:27:56;98261.78;;;15.87;100.00
60871;BME280;46714;50.118;14.462;2023-08-07T10:30:25;98251.94;;;15.86;98.78
60871;BME280;46714;50.118;14.462;2023-08-07T10:32:51;98262.09;;;15.96;99.79
60871;BME280;46714;50.118;14.462;2023-08-07T10:38:06;98259.94;;;16.13;98.67
60871;BME280;46714;50.118;14.462;2023-08-07T10:40:33;98258.81;;;16.14;99.05
60871;BME280;46714;50.118;14.462;2023-08-07T10:43:20;98258.00;;;16.13;96.77
60871;BME280;46714;50.118;14.462;2023-08-07T10:45:44;98270.34;;;16.11;97.16
60871;BME280;46714;50.118;14.462;2023-08-07T10:48:13;98269.25;;;16.12;94.59
60871;BME280;46714;50.118;14.462;2023-08-07T10:51:16;98262.38;;;16.15;94.33
60871;BME280;46714;50.118;14.462;2023-08-07T10:53:39;98268.69;;;16.05;90.10
60871;BME280;46714;50.118;14.462;2023-08-07T10:56:08;98270.88;;;16.03;91.93
60871;BME280;46714;50.118;14.462;2023-08-07T10:58:36;98271.44;;;16.00;90.18
60871;BME280;46714;50.118;14.462;2023-08-07T11:03:45;98262.94;;;16.01;93.57
60871;BME280;46714;50.118;14.462;2023-08-07T11:06:37;98261.81;;;16.12;92.70
60871;BME280;46714;50.118;14.462;2023-08-07T11:09:04;98263.22;;;16.30;92.98
60871;BME280;46714;50.118;14.462;2023-08-07T11:11:41;98254.69;;;16.52;93.73
60871;BME280;46714;50.118;14.462;2023-08-07T11:14:08;98249.47;;;16.61;86.72
60871;BME280;46714;50.118;14.462;2023-08-07T11:16:35;98259.66;;;16.61;89.89
60871;BME280;46714;50.118;14.462;2023-08-07T11:19:00;98254.41;;;16.49;84.44
60871;BME280;46714;50.118;14.462;2023-08-07T11:21:26;98251.41;;;16.30;86.53
60871;BME280;46714;50.118;14.462;2023-08-07T11:23:52;98257.16;;;16.03;92.60
60871;BME280;46714;50.118;14.462;2023-08-07T11:26:17;98246.13;;;15.77;89.95
60871;BME280;46714;50.118;14.462;2023-08-07T11:28:46;98255.19;;;15.78;89.16
60871;BME280;46714;50.118;14.462;2023-08-07T11:31:12;98256.91;;;16.04;88.23
60871;BME280;46714;50.118;14.462;2023-08-07T11:33:38;98254.72;;;16.22;85.32
60871;BME280;46714;50.118;14.462;2023-08-07T11:36:09;98249.47;;;16.30;85.64
60871;BME280;46714;50.118;14.462;2023-08-07T11:38:39;98235.78;;;16.36;84.88
60871;BME280;46714;50.118;14.462;2023-08-07T11:41:09;98250.03;;;16.38;84.71
60871;BME280;46714;50.118;14.462;2023-08-07T11:43:36;98255.78;;;16.46;85.57
60871;BME280;46714;50.118;14.462;2023-08-07T11:46:06;98258.56;;;16.57;84.91
60871;BME280;46714;50.118;14.462;2023-08-07T11:48:33;98252.22;;;16.66;83.53
60871;BME280;46714;50.118;14.462;2023-08-07T11:51:00;98260.16;;;16.78;81.75
60871;BME280;46714;50.118;14.462;2023-08-07T11:53:28;98259.34;;;16.88;80.68
60871;BME280;46714;50.118;14.462;2023-08-07T11:55:59;98269.75;;;17.01;83.00
60871;BME280;46714;50.118;14.462;2023-08-07T11:58:33;98276.63;;;17.04;78.05
60871;BME280;46714;50.118;14.462;2023-08-07T12:01:03;98269.22;;;17.04;75.65
60871;BME280;46714;50.118;14.462;2023-08-07T12:03:41;98271.94;;;17.14;80.76
60871;BME280;46714;50.118;14.462;2023-08-07T12:06:08;98263.34;;;17.26;81.14
60871;BME280;46714;50.118;14.462;2023-08-07T12:08:38;98280.41;;;17.28;80.08
60871;BME280;46714;50.118;14.462;2023-08-07T12:11:05;98273.28;;;17.22;78.20
60871;BME280;46714;50.118;14.462;2023-08-07T12:13:38;98274.63;;;17.30;78.67
60871;BME280;46714;50.118;14.462;2023-08-07T12:16:07;98290.25;;;17.45;79.20
60871;BME280;46714;50.118;14.462;2023-08-07T12:18:33;98288.28;;;17.55;77.95
60871;BME280;46714;50.118;14.462;2023-08-07T12:21:01;98280.50;;;17.68;78.32
60871;BME280;46714;50.118;14.462;2023-08-07T12:23:32;98283.00;;;17.69;76.11
60871;BME280;46714;50.118;14.462;2023-08-07T12:25:59;98294.03;;;17.64;75.82
60871;BME280;46714;50.118;14.462;2023-08-07T12:28:25;98293.50;;;17.57;78.30
60871;BME280;46714;50.118;14.462;2023-08-07T12:30:51;98298.16;;;17.56;75.18
60871;BME280;46714;50.118;14.462;2023-08-07T12:33:17;98292.44;;;17.53;77.73
60871;BME280;46714;50.118;14.462;2023-08-07T12:35:43;98300.94;;;17.51;77.04
60871;BME280;46714;50.118;14.462;2023-08-07T12:38:09;98302.91;;;17.46;75.69
60871;BME280;46714;50.118;14.462;2023-08-07T12:40:35;98298.50;;;17.45;76.22
60871;BME280;46714;50.118;14.462;2023-08-07T12:43:01;98313.09;;;17.50;75.13
60871;BME280;46714;50.118;14.462;2023-08-07T12:45:27;98307.56;;;17.55;74.70
60871;BME280;46714;50.118;14.462;2023-08-07T12:47:53;98301.97;;;17.66;75.40
60871;BME280;46714;50.118;14.462;2023-08-07T12:50:18;98309.41;;;17.75;76.29
60871;BME280;46714;50.118;14.462;2023-08-07T12:52:44;98305.53;;;17.82;74.10
60871;BME280;46714;50.118;14.462;2023-08-07T12:55:09;98303.63;;;17.82;71.43